Latest Weather Observations for Melbourne (Olympic Park)

IDV60801

Issued at 7:05 pm EST Friday 25 April 2014 (issued every 30 minutes, with the page automatically refreshed every 10 minutes)

About weather observations | Map of weather stations | Latest weather observations for VIC | Other Formats
Station Details ID: 086338 Name: MELBOURNE (OLYMPIC PARK) Lat: -37.83 Lon: 144.98 Height: 7.53 m
Data from the previous 72 hours. | See also: Recent months for locations in Victoria
Date/Time
EST
Temp
°C
App
Temp
°C
Dew
Point
Rel
Hum
%
Delta-T
°C
Wind Press
QNH
hPa
Press
MSL
hPa
Rain
since 9 am
mm
Dir
 
Spd
km/h
Gust
km/h
Spd
kts
Gust
kts
25/07:00pm 17.1 13.4 4.4 43 6.0 N 13 22 7 12 1013.7 - 0.0
25/06:30pm 17.3 13.0 5.3 45 5.8 N 17 24 9 13 1013.4 - 0.0
25/06:00pm 17.7 13.5 5.9 46 5.8 NNW 17 32 9 17 1013.5 1013.5 0.0
25/05:30pm 18.6 14.5 6.1 44 6.2 NNW 17 26 9 14 1013.0 - 0.0
25/05:00pm 18.8 14.6 7.3 47 5.8 N 19 30 10 16 1012.6 - 0.0
25/04:30pm 19.6 15.1 6.0 41 6.7 N 19 28 10 15 1012.5 - 0.0
25/04:00pm 19.9 15.1 5.5 39 7.1 N 20 35 11 19 1012.9 - 0.0
25/03:30pm 20.3 15.7 6.6 41 6.9 N 20 32 11 17 1013.2 - 0.0
25/03:00pm 20.2 15.6 6.5 41 6.9 N 20 30 11 16 1013.5 1013.5 0.0
25/02:30pm 20.1 15.5 5.7 39 7.1 NNW 19 28 10 15 1013.9 - 0.0
25/02:00pm 20.5 15.7 5.7 38 7.3 N 20 28 11 15 1014.2 - 0.0
25/01:30pm 19.5 14.2 5.2 39 7.0 NNW 22 39 12 21 1014.9 - 0.0
25/01:00pm 19.2 14.4 5.6 41 6.7 NNW 20 32 11 17 1015.6 - 0.0
25/12:30pm 18.2 16.6 6.4 46 5.8 NNE 4 13 2 7 1016.4 - 0.0
25/12:00pm 15.9 13.7 5.5 50 5.0 N 6 11 3 6 1017.3 1017.3 0.0
25/11:30am 15.7 14.3 5.6 51 4.8 N 2 9 1 5 1018.1 - 0.0
25/11:00am 14.2 12.6 4.5 52 4.5 NE 2 7 1 4 1018.5 - 0.0
25/10:30am 12.7 10.8 5.1 60 3.5 ENE 4 9 2 5 1019.1 - 0.0
25/10:00am 12.0 9.8 5.2 63 3.1 NE 6 9 3 5 1019.5 - 0.0
25/09:30am 10.5 7.7 5.1 69 2.5 NNE 9 13 5 7 1020.2 - 0.0
25/09:00am 9.7 6.9 5.1 73 2.1 NNE 9 11 5 6 1020.6 1020.6 0.2
25/08:30am 8.8 6.6 5.5 80 1.5 NE 6 9 3 5 1020.8 - 0.2
25/08:00am 7.0 4.2 5.0 87 0.9 NE 9 11 5 6 1020.9 - 0.2
25/07:30am 6.9 4.7 5.1 88 0.8 NE 6 7 3 4 1021.0 - 0.2
25/07:00am 7.1 4.9 5.3 88 0.8 ENE 6 11 3 6 1020.9 - 0.2
25/06:30am 6.4 5.3 4.9 90 0.7 ESE 0 0 0 0 1021.1 - 0.2
25/06:00am 7.0 4.2 5.2 88 0.8 NNE 9 11 5 6 1021.2 1021.2 0.2
25/05:30am 7.3 4.1 5.3 87 0.9 NNE 11 13 6 7 1020.9 - 0.2
25/05:00am 7.9 5.2 5.7 86 1.0 NE 9 11 5 6 1020.7 - 0.2
25/04:30am 7.4 6.5 5.9 90 0.7 CALM 0 0 0 0 1020.5 - 0.2
25/04:00am 8.6 6.5 5.7 82 1.3 NNE 6 9 3 5 1020.6 - 0.2
25/03:30am 8.5 6.3 5.4 81 1.4 NNE 6 9 3 5 1020.7 - 0.2
25/03:00am 8.9 6.2 5.5 79 1.5 NNE 9 13 5 7 1021.0 1021.0 0.2
25/02:30am 9.8 8.0 5.4 74 2.0 NNE 4 7 2 4 1020.9 - 0.2
25/02:00am 10.3 8.6 5.7 73 2.1 N 4 7 2 4 1021.0 - 0.2
25/01:30am 10.2 9.2 5.4 72 2.2 CALM 0 0 0 0 1021.1 - 0.2
25/01:00am 11.6 9.5 5.7 67 2.7 NNE 6 7 3 4 1021.1 - 0.2
25/12:30am 12.5 10.8 5.7 63 3.2 NE 4 9 2 5 1021.2 - 0.2
25/12:00am 12.6 11.6 5.8 63 3.2 CALM 0 6 0 3 1021.5 1021.5 0.2
 
Date/Time
EST
Temp
°C
App
Temp
°C
Dew
Point
Rel
Hum
%
Delta-T
°C
Wind Press
QNH
hPa
Press
MSL
hPa
Rain
since 9 am
mm
Dir
 
Spd
km/h
Gust
km/h
Spd
kts
Gust
kts
24/11:30pm 12.6 10.8 5.3 61 3.4 E 4 7 2 4 1021.7 - 0.2
24/11:00pm 12.7 10.8 5.1 60 3.5 E 4 7 2 4 1021.7 - 0.2
24/10:30pm 13.1 10.6 4.5 56 3.9 ESE 7 13 4 7 1021.7 - 0.2
24/10:00pm 13.3 10.8 4.7 56 4.0 SE 7 13 4 7 1021.7 - 0.2
24/09:30pm 13.5 10.6 4.9 56 4.0 SE 9 13 5 7 1021.5 - 0.2
24/09:00pm 13.4 11.0 5.1 57 3.8 ESE 7 11 4 6 1021.3 1021.3 0.2
24/08:30pm 13.5 11.2 5.7 59 3.7 ESE 7 13 4 7 1021.1 - 0.2
24/08:00pm 13.6 11.5 5.7 59 3.7 SSE 6 9 3 5 1020.8 - 0.2
24/07:30pm 13.8 11.6 6.2 60 3.6 SSE 7 11 4 6 1020.5 - 0.2
24/07:00pm 13.9 11.3 6.3 60 3.6 SSE 9 17 5 9 1020.2 - 0.2
24/06:30pm 14.2 11.6 6.3 59 3.8 SSE 9 15 5 8 1019.9 - 0.2
24/06:00pm 14.2 11.6 6.3 59 3.8 SSE 9 17 5 9 1019.5 1019.5 0.2
24/05:30pm 14.3 11.0 6.4 59 3.8 SSE 13 22 7 12 1019.0 - 0.2
24/05:00pm 14.4 12.2 6.3 58 3.9 S 7 11 4 6 1018.6 - 0.2
24/04:30pm 14.9 11.5 6.0 55 4.3 S 13 20 7 11 1018.4 - 0.2
24/04:00pm 15.5 11.8 4.5 48 5.1 S 13 22 7 12 1018.1 - 0.2
24/03:30pm 15.9 11.9 4.9 48 5.2 SSE 15 24 8 13 1017.9 - 0.2
24/03:00pm 16.4 12.8 2.8 40 6.2 SSW 11 20 6 11 1017.6 1017.6 0.2
24/02:30pm 16.3 12.3 2.7 40 6.2 S 13 22 7 12 1017.5 - 0.2
24/02:00pm 16.6 13.1 3.3 41 6.1 SSW 11 20 6 11 1017.4 - 0.2
24/01:30pm 16.3 12.3 3.0 41 6.1 S 13 24 7 13 1017.3 - 0.2
24/01:00pm 16.3 11.6 3.4 42 5.9 SSW 17 28 9 15 1017.4 - 0.2
24/12:30pm 15.8 11.1 2.9 42 5.8 SSW 17 32 9 17 1017.4 - 0.2
24/12:00pm 15.7 12.0 6.4 54 4.5 SSW 15 28 8 15 1017.4 1017.4 0.2
24/11:30am 16.8 13.4 6.0 49 5.3 SW 13 26 7 14 1017.2 - 0.2
24/11:00am 15.9 11.4 6.3 53 4.7 SSW 19 32 10 17 1016.9 - 0.2
24/10:30am 16.5 14.3 9.2 62 3.8 WSW 11 28 6 15 1016.5 - 0.2
24/10:00am 15.9 13.7 10.7 71 2.8 WSW 13 24 7 13 1016.1 - 0.0
24/09:30am 15.3 13.2 11.1 76 2.2 W 13 24 7 13 1015.6 - 0.0
24/09:00am 14.0 12.3 11.2 83 1.5 W 11 24 6 13 1015.2 1015.2 0.2
24/08:30am 13.9 11.4 10.9 82 1.6 W 15 30 8 16 1014.5 - 0.2
24/08:00am 15.3 13.2 8.1 62 3.6 NW 9 15 5 8 1013.2 - 0.0
24/07:30am 15.1 12.1 6.1 55 4.3 N 11 19 6 10 1012.4 - 0.0
24/07:00am 15.2 12.0 5.1 51 4.8 N 11 19 6 10 1012.0 - 0.0
24/06:30am 14.3 10.7 4.9 53 4.4 N 13 20 7 11 1011.8 - 0.0
24/06:00am 13.8 10.5 4.4 53 4.3 N 11 15 6 8 1011.7 1011.7 0.0
24/05:30am 13.4 9.3 4.6 55 4.0 NNE 15 19 8 10 1011.2 - 0.0
24/05:00am 13.7 10.4 4.6 54 4.2 N 11 20 6 11 1010.9 - 0.0
24/04:30am 13.5 9.8 4.6 55 4.1 N 13 24 7 13 1010.5 - 0.0
24/04:00am 14.1 10.4 4.4 52 4.5 N 13 17 7 9 1010.6 - 0.0
24/03:30am 14.8 10.4 4.5 50 4.8 N 17 24 9 13 1010.7 - 0.0
24/03:00am 15.0 11.3 4.7 50 4.8 N 13 17 7 9 1010.6 1010.6 0.0
24/02:30am 15.0 11.4 5.0 51 4.7 N 13 24 7 13 1011.0 - 0.0
24/02:00am 15.2 11.6 4.9 50 4.8 N 13 20 7 11 1011.3 - 0.0
24/01:30am 15.0 11.1 5.2 52 4.6 N 15 20 8 11 1011.4 - 0.0
24/01:00am 15.1 11.5 5.0 51 4.7 N 13 17 7 9 1011.7 - 0.0
24/12:30am 14.8 11.3 5.3 53 4.5 N 13 19 7 10 1011.8 - 0.0
24/12:00am 14.5 11.0 5.3 54 4.3 N 13 19 7 10 1012.2 1012.2 0.0
 
Date/Time
EST
Temp
°C
App
Temp
°C
Dew
Point
Rel
Hum
%
Delta-T
°C
Wind Press
QNH
hPa
Press
MSL
hPa
Rain
since 9 am
mm
Dir
 
Spd
km/h
Gust
km/h
Spd
kts
Gust
kts
23/11:30pm 14.9 11.0 5.4 53 4.5 N 15 19 8 10 1012.4 - 0.0
23/11:00pm 14.6 11.2 5.9 56 4.2 N 13 20 7 11 1012.8 - 0.0
23/10:30pm 15.0 12.4 6.0 55 4.3 N 9 13 5 7 1013.1 - 0.0
23/10:00pm 15.1 13.1 6.9 58 4.0 N 7 11 4 6 1013.3 - 0.0
23/09:30pm 15.1 14.0 8.3 64 3.4 NW 4 11 2 6 1013.4 - 0.0
23/09:00pm 15.8 13.7 6.8 55 4.4 N 7 13 4 7 1013.2 1013.2 0.0
23/08:30pm 13.7 14.0 11.0 84 1.4 CALM 0 0 0 0 1013.2 - 0.0
23/08:00pm 13.3 13.8 11.5 89 1.0 CALM 0 6 0 3 1013.3 - 0.0
23/07:30pm 13.8 14.3 11.7 87 1.1 CALM 0 0 0 0 1013.4 - 0.0
23/07:00pm 13.9 14.4 11.6 86 1.2 CALM 0 0 0 0 1013.0 - 0.0
23/06:30pm 14.0 14.5 11.5 85 1.3 CALM 0 0 0 0 1013.1 - 0.0
23/06:00pm 15.0 15.3 10.8 76 2.2 CALM 0 0 0 0 1013.0 1013.0 0.0
23/05:30pm 15.8 16.1 11.0 73 2.6 CALM 0 0 0 0 1013.2 - 0.0
23/05:00pm 17.4 17.3 9.6 60 4.1 CALM 0 7 0 4 1013.1 - 0.0
23/04:30pm 18.1 17.6 9.2 56 4.7 S 2 7 1 4 1013.3 - 0.0
23/04:00pm 17.6 17.4 9.2 58 4.4 CALM 0 6 0 3 1013.3 - 0.0
23/03:30pm 17.9 16.8 9.8 59 4.3 SSW 6 7 3 4 1013.4 - 0.0
23/03:00pm 17.6 16.5 9.8 60 4.1 S 6 11 3 6 1013.5 1013.5 0.0
23/02:30pm 17.4 16.8 10.3 63 3.8 S 4 7 2 4 1013.7 - 0.0
23/02:00pm 17.3 16.3 10.4 64 3.7 S 6 9 3 5 1014.0 - 0.0
23/01:30pm 17.7 16.7 10.3 62 3.9 S 6 11 3 6 1014.4 - 0.0
23/01:00pm 17.2 15.7 10.6 65 3.5 SSW 9 15 5 8 1015.0 - 0.0
23/12:30pm 16.3 14.8 10.4 68 3.1 S 9 15 5 8 1015.5 - 0.0
23/12:00pm 16.4 15.5 10.7 69 3.0 SW 6 11 3 6 1015.9 1015.9 0.0
23/11:30am 16.2 15.6 10.3 68 3.1 S 4 9 2 5 1016.2 - 0.0
23/11:00am 16.2 15.3 10.7 70 2.9 S 6 9 3 5 1016.3 - 0.0
23/10:30am 15.9 14.8 9.8 67 3.2 SW 6 13 3 7 1016.9 - 0.0
23/10:00am 14.7 12.5 9.3 70 2.8 S 11 19 6 10 1017.1 - 0.0
23/09:30am 14.4 13.0 9.6 73 2.5 WSW 7 13 4 7 1017.2 - 0.0
23/09:00am 13.7 12.5 9.7 77 2.0 W 6 13 3 7 1017.2 1017.2 4.8
23/08:30am 13.1 11.9 9.7 80 1.7 WSW 6 11 3 6 1016.8 - 4.8
23/08:00am 12.1 11.3 9.8 86 1.2 W 4 11 2 6 1016.8 - 4.8
23/07:30am 11.1 11.4 10.8 98 0.2 CALM 0 6 0 3 1016.6 - 4.8
23/07:00am 11.1 11.3 10.6 97 0.3 CALM 0 0 0 0 1016.3 - 4.8
23/06:30am 11.6 11.8 10.7 94 0.5 CALM 0 0 0 0 1016.3 - 4.8
23/06:00am 12.4 12.8 11.3 93 0.6 CALM 0 4 0 2 1016.5 1016.5 4.8
23/05:30am 12.0 12.4 11.4 96 0.3 CALM 0 0 0 0 1016.3 - 4.8
23/05:00am 12.2 11.9 11.6 96 0.3 SW 4 9 2 5 1016.2 - 4.8
23/04:30am 12.4 13.1 12.1 98 0.2 CALM 0 0 0 0 1016.2 - 4.8
23/04:00am 13.0 13.7 12.2 95 0.4 CALM 0 6 0 3 1016.0 - 4.8
23/03:30am 13.2 13.7 12.9 98 0.2 S 2 9 1 5 1016.1 - 4.8
23/03:00am 13.5 14.6 13.5 100 0.0 CALM 0 0 0 0 1016.2 1016.2 4.8
23/02:30am 13.5 14.5 13.3 99 0.1 CALM 0 0 0 0 1016.5 - 4.8
23/02:00am 13.5 14.5 13.3 99 0.1 CALM 0 0 0 0 1016.7 - 4.8
23/01:30am 13.4 14.4 13.1 98 0.2 CALM 0 0 0 0 1017.0 - 4.8
23/01:00am 13.3 14.2 12.8 97 0.3 CALM 0 0 0 0 1017.1 - 4.8
23/12:30am 13.5 14.3 12.6 94 0.5 CALM 0 0 0 0 1017.2 - 4.8
23/12:00am 13.7 14.6 12.8 94 0.5 CALM 0 0 0 0 1017.4 1017.4 4.8
 
Date/Time
EST
Temp
°C
App
Temp
°C
Dew
Point
Rel
Hum
%
Delta-T
°C
Wind Press
QNH
hPa
Press
MSL
hPa
Rain
since 9 am
mm
Dir
 
Spd
km/h
Gust
km/h
Spd
kts
Gust
kts
22/11:30pm 14.0 15.0 13.2 95 0.4 CALM 0 4 0 2 1017.5 - 4.8
22/11:00pm 14.3 15.4 13.5 95 0.4 CALM 0 6 0 3 1017.8 - 4.8
22/10:30pm 14.3 15.6 14.0 98 0.2 CALM 0 0 0 0 1018.0 - 4.8
22/10:00pm 14.6 16.0 14.3 98 0.2 CALM 0 0 0 0 1018.0 - 4.8
22/09:30pm 14.4 15.6 13.9 97 0.3 CALM 0 0 0 0 1017.7 - 4.8
22/09:00pm 14.4 15.4 13.3 93 0.6 CALM 0 0 0 0 1017.5 1017.5 4.8
22/08:30pm 14.7 14.9 13.1 90 0.9 SSE 4 7 2 4 1017.3 - 4.8
22/08:00pm 14.8 14.9 12.7 87 1.2 S 4 9 2 5 1017.2 - 4.8
22/07:30pm 14.9 14.8 13.3 90 0.9 S 6 11 3 6 1017.0 - 4.8

Other Formats:

Comma delimited format used in spreadsheet applications
http://www.bom.gov.au/fwo/IDV60801/IDV60801.95936.axf

JavaScript Object Notation format (JSON) in row-major order
http://www.bom.gov.au/fwo/IDV60801/IDV60801.95936.json